| time (UTC) | temp F | wind direction | speed knots | gust knots | rain 1hr in | rain 24hr in | rain mn in | humidity % | barometer mb |
| 20260906113102 | 64 | 0 | 0.0 | 0.0 | 0.00 | 0.00 | 0.00 | 95 | 1019.3 |
| 20260906111558 | 63 | 0 | 0.0 | 0.0 | 0.00 | 0.00 | 0.00 | 95 | 1019.2 |
| 20260906110055 | 63 | 0 | 0.0 | 0.0 | 0.00 | 0.00 | 0.00 | 94 | 1018.9 |
| 20260906104552 | 63 | 0 | 0.0 | 0.0 | 0.00 | 0.00 | 0.00 | 94 | 1018.9 |
| 20260906103058 | 63 | 0 | 0.0 | 0.0 | 0.00 | 0.00 | 0.00 | 94 | 1018.9 |
| 20260906101602 | 63 | 0 | 0.0 | 0.9 | 0.00 | 0.00 | 0.00 | 94 | 1018.8 |
| 20260906100055 | 63 | 0 | 0.0 | 0.9 | 0.00 | 0.00 | 0.00 | 94 | 1018.6 |
| 20260906094553 | 63 | 0 | 0.0 | 0.9 | 0.00 | 0.00 | 0.00 | 94 | 1018.5 |
| 20260906093105 | 63 | 117 | 0.0 | 0.9 | 0.00 | 0.00 | 0.00 | 94 | 1018.6 |
| 20260906091556 | 63 | 0 | 0.0 | 0.9 | 0.00 | 0.00 | 0.00 | 94 | 1018.4 |
| 20260906090051 | 63 | 0 | 0.0 | 0.0 | 0.00 | 0.00 | 0.00 | 94 | 1018.4 |
| 20260906084557 | 62 | 0 | 0.0 | 0.0 | 0.00 | 0.00 | 0.00 | 94 | 1018.5 |
| 20260906083048 | 62 | 0 | 0.0 | 0.0 | 0.00 | 0.00 | 0.00 | 93 | 1018.4 |
| 20260906081600 | 62 | 0 | 0.0 | 0.9 | 0.00 | 0.00 | 0.00 | 93 | 1018.6 |
| 20260906080100 | 62 | 0 | 0.0 | 0.9 | 0.00 | 0.00 | 0.00 | 92 | 1018.5 |
| 20260906074552 | 62 | 0 | 0.0 | 0.0 | 0.00 | 0.00 | 0.00 | 92 | 1018.4 |
| 20260906073059 | 63 | 0 | 0.0 | 0.0 | 0.00 | 0.00 | 0.00 | 91 | 1018.4 |
| 20260906071606 | 64 | 0 | 0.0 | 0.0 | 0.00 | 0.00 | 0.00 | 91 | 1018.3 |
| 20260906070055 | 64 | 0 | 0.0 | 0.0 | 0.00 | 0.00 | 0.00 | 91 | 1018.3 |
| 20260906064602 | 65 | 0 | 0.0 | 0.0 | 0.00 | 0.00 | 0.00 | 91 | 1018.4 |
| 20260906063058 | 66 | 0 | 0.0 | 0.0 | 0.00 | 0.00 | 0.00 | 90 | 1018.7 |
| 20260906061558 | 66 | 0 | 0.0 | 0.0 | 0.00 | 0.00 | 0.00 | 90 | 1018.6 |
| 20260906060138 | 67 | 0 | 0.0 | 0.9 | 0.00 | 0.00 | 0.00 | 90 | 1018.6 |
| 20260906054550 | 67 | 123 | 0.0 | 0.9 | 0.00 | 0.00 | 0.00 | 90 | 1018.6 |
| 20260906053057 | 67 | 0 | 0.0 | 0.9 | 0.00 | 0.00 | 0.00 | 90 | 1018.6 |
| 20260906051556 | 67 | 0 | 0.0 | 0.9 | 0.00 | 0.00 | 0.00 | 91 | 1018.6 |
| 20260906050110 | 67 | 0 | 0.0 | 0.9 | 0.00 | 0.00 | 0.00 | 90 | 1018.3 |
| 20260906044548 | 67 | 0 | 0.0 | 0.9 | 0.00 | 0.00 | 0.00 | 91 | 1018.3 |
| 20260906043047 | 67 | 200 | 0.0 | 0.9 | 0.00 | 0.00 | 0.00 | 91 | 1018.1 |
| 20260906041555 | 67 | 142 | 0.0 | 0.9 | 0.00 | 0.00 | 0.00 | 91 | 1017.9 |
| 20260906040054 | 67 | 0 | 0.0 | 0.0 | 0.00 | 0.00 | 0.00 | 90 | 1017.8 |
| 20260906034601 | 67 | 0 | 0.0 | 0.9 | 0.00 | 0.00 | 0.00 | 89 | 1017.7 |
| 20260906033056 | 68 | 0 | 0.0 | 0.9 | 0.00 | 0.00 | 0.00 | 89 | 1017.5 |
| 20260906031616 | 68 | 0 | 0.0 | 0.9 | 0.00 | 0.00 | 0.00 | 88 | 1017.4 |
| 20260906030051 | 69 | 242 | 0.0 | 0.9 | 0.00 | 0.00 | 0.00 | 87 | 1017.3 |
| 20260906024605 | 70 | 115 | 0.0 | 0.9 | 0.00 | 0.01 | 0.00 | 86 | 1017.3 |
| 20260906023109 | 70 | 140 | 0.0 | 0.9 | 0.00 | 0.01 | 0.00 | 86 | 1017.3 |
| 20260906021555 | 70 | 0 | 0.0 | 0.9 | 0.00 | 0.01 | 0.00 | 86 | 1017.2 |
| 20260906020059 | 70 | 0 | 0.0 | 3.5 | 0.00 | 0.01 | 0.00 | 86 | 1017.2 |
| 20260906014557 | 70 | 0 | 0.0 | 0.9 | 0.00 | 0.01 | 0.00 | 86 | 1017.1 |
| 20260906013056 | 70 | 0 | 0.0 | 0.9 | 0.00 | 0.01 | 0.00 | 86 | 1017.1 |
| 20260906011604 | 70 | 0 | 0.0 | 2.6 | 0.00 | 0.01 | 0.00 | 87 | 1017.1 |
| 20260906010059 | 70 | 141 | 0.0 | 2.6 | 0.00 | 0.01 | 0.00 | 87 | 1016.9 |
| 20260906004558 | 70 | 257 | 0.0 | 1.7 | 0.00 | 0.01 | 0.00 | 86 | 1017.1 |
| 20260906003051 | 71 | 0 | 0.0 | 1.7 | 0.00 | 0.01 | 0.00 | 85 | 1017.0 |
| 20260906001548 | 72 | 308 | 0.0 | 5.2 | 0.00 | 0.01 | 0.00 | 83 | 1017.0 |
| 20260906000105 | 73 | 180 | 0.9 | 2.6 | 0.00 | 0.01 | 0.00 | 81 | 1016.8 |
| 20260905234549 | 74 | 109 | 0.0 | 5.2 | 0.00 | 0.01 | 0.00 | 81 | 1016.7 |
| 20260905233051 | 75 | 259 | 0.0 | 1.7 | 0.00 | 0.01 | 0.00 | 79 | 1016.5 |
| 20260905231616 | 76 | 292 | 0.0 | 5.2 | 0.00 | 0.01 | 0.00 | 78 | 1016.3 |
| 20260905230100 | 77 | 137 | 0.9 | 4.3 | 0.00 | 0.01 | 0.00 | 77 | 1016.3 |
| 20260905224549 | 79 | 266 | 0.0 | 8.7 | 0.00 | 0.01 | 0.00 | 76 | 1015.9 |
| 20260905223059 | 81 | 289 | 0.9 | 4.3 | 0.00 | 0.01 | 0.00 | 74 | 1015.8 |
| 20260905221607 | 84 | 0 | 0.0 | 1.7 | 0.00 | 0.01 | 0.00 | 69 | 1015.8 |
| 20260905220055 | 83 | 0 | 0.9 | 2.6 | 0.00 | 0.01 | 0.00 | 69 | 1015.7 |
| 20260905214601 | 83 | 0 | 0.0 | 1.7 | 0.00 | 0.01 | 0.00 | 72 | 1015.7 |
| 20260905213047 | 83 | 0 | 0.0 | 2.6 | 0.00 | 0.01 | 0.00 | 70 | 1015.6 |
| 20260905211554 | 86 | 111 | 0.0 | 2.6 | 0.00 | 0.01 | 0.00 | 66 | 1015.6 |
| 20260905210103 | 84 | 0 | 0.0 | 2.6 | 0.00 | 0.01 | 0.00 | 67 | 1015.6 |
| 20260905204556 | 84 | 142 | 0.0 | 2.6 | 0.00 | 0.01 | 0.00 | 68 | 1015.6 |
| 20260905203050 | 84 | 301 | 0.0 | 2.6 | 0.00 | 0.01 | 0.00 | 70 | 1015.7 |
| 20260905201559 | 84 | 0 | 0.0 | 2.6 | 0.00 | 0.01 | 0.00 | 71 | 1015.9 |
| 20260905200124 | 83 | 184 | 0.0 | 4.3 | 0.00 | 0.01 | 0.00 | 70 | 1015.8 |
| 20260905194553 | 82 | 209 | 0.0 | 2.6 | 0.00 | 0.01 | 0.00 | 75 | 1015.9 |
| 20260905193047 | 80 | 194 | 0.0 | 1.7 | 0.00 | 0.01 | 0.00 | 77 | 1016.2 |
| 20260905191557 | 78 | 0 | 0.0 | 0.9 | 0.00 | 0.01 | 0.00 | 81 | 1016.3 |
| 20260905190055 | 77 | 0 | 0.0 | 0.9 | 0.00 | 0.01 | 0.00 | 81 | 1016.4 |
| 20260905184553 | 76 | 233 | 0.0 | 1.7 | 0.00 | 0.01 | 0.00 | 82 | 1016.5 |
| 20260905183050 | 76 | 313 | 0.0 | 2.6 | 0.00 | 0.01 | 0.00 | 82 | 1016.7 |
| 20260905181556 | 76 | 143 | 0.0 | 0.9 | 0.00 | 0.01 | 0.00 | 83 | 1016.5 |
| 20260905180112 | 76 | 0 | 0.0 | 0.9 | 0.00 | 0.01 | 0.00 | 82 | 1016.5 |
| 20260905174550 | 76 | 0 | 0.0 | 0.9 | 0.00 | 0.01 | 0.00 | 83 | 1016.6 |
| 20260905173114 | 76 | 0 | 0.0 | 2.6 | 0.00 | 0.01 | 0.00 | 83 | 1016.4 |
| 20260905171557 | 76 | 288 | 0.0 | 1.7 | 0.00 | 0.01 | 0.00 | 83 | 1016.6 |
| 20260905170053 | 76 | 302 | 0.0 | 0.9 | 0.00 | 0.01 | 0.00 | 83 | 1016.6 |
| 20260905164603 | 77 | 0 | 0.0 | 2.6 | 0.00 | 0.12 | 0.00 | 82 | 1016.7 |
| 20260905163058 | 77 | 248 | 0.0 | 1.7 | 0.00 | 0.12 | 0.00 | 82 | 1016.7 |
| 20260905161559 | 78 | 0 | 0.0 | 0.9 | 0.00 | 0.12 | 0.00 | 82 | 1016.6 |
| 20260905160059 | 78 | 148 | 0.0 | 1.7 | 0.00 | 0.12 | 0.00 | 81 | 1016.5 |
| 20260905154552 | 78 | 0 | 0.0 | 1.7 | 0.00 | 0.12 | 0.00 | 81 | 1016.4 |
| 20260905153056 | 79 | 103 | 0.0 | 3.5 | 0.00 | 0.12 | 0.00 | 80 | 1016.2 |
| 20260905151550 | 78 | 114 | 0.0 | 1.7 | 0.00 | 0.12 | 0.00 | 83 | 1016.1 |
| 20260905150057 | 77 | 132 | 0.0 | 5.2 | 0.00 | 0.12 | 0.00 | 88 | 1016.0 |
| 20260905144555 | 74 | 117 | 0.9 | 4.3 | 0.00 | 0.12 | 0.00 | 89 | 1015.8 |
| 20260905143101 | 72 | 138 | 0.0 | 1.7 | 0.00 | 0.12 | 0.00 | 92 | 1015.9 |
| 20260905141555 | 72 | 0 | 0.0 | 1.7 | 0.00 | 0.12 | 0.00 | 93 | 1015.8 |
| 20260905134600 | 71 | 145 | 0.0 | 2.6 | 0.00 | 0.12 | 0.00 | 94 | 1015.8 |
| 20260905133050 | 71 | 0 | 0.0 | 1.7 | 0.00 | 0.12 | 0.00 | 94 | 1015.7 |
| 20260905131557 | 71 | 0 | 0.0 | 0.0 | 0.00 | 0.12 | 0.00 | 94 | 1015.6 |
| 20260905130055 | 70 | 124 | 0.0 | 0.9 | 0.00 | 0.12 | 0.00 | 95 | 1016.0 |
| 20260905124556 | 70 | 208 | 0.0 | 3.5 | 0.00 | 0.12 | 0.00 | 94 | 1015.4 |
| 20260905123050 | 70 | 0 | 0.0 | 2.6 | 0.00 | 0.12 | 0.00 | 94 | 1015.1 |
| 20260905121601 | 70 | 0 | 0.0 | 0.9 | 0.00 | 0.12 | 0.00 | 94 | 1014.6 |
| 20260905120109 | 69 | 0 | 0.0 | 0.9 | 0.00 | 0.12 | 0.00 | 94 | 1014.5 |
| 20260905114607 | 69 | 127 | 0.0 | 0.9 | 0.00 | 0.12 | 0.00 | 94 | 1014.4 |